createdAt,value
2019-03-04T00:00:45.545Z,57.13
2019-03-04T00:03:13.514Z,57.12
2019-03-04T00:05:40.214Z,57.41
2019-03-04T00:08:06.968Z,56.96
2019-03-04T00:10:33.820Z,56.74
2019-03-04T00:13:00.530Z,56.40
2019-03-04T00:15:27.240Z,55.94
2019-03-04T00:17:53.948Z,55.60
2019-03-04T00:20:21.028Z,55.95
2019-03-04T00:22:47.765Z,55.76
2019-03-04T00:25:14.451Z,55.62
2019-03-04T00:27:41.518Z,55.81
2019-03-04T00:30:08.230Z,55.59
2019-03-04T00:32:37.310Z,55.10
2019-03-04T00:35:06.787Z,55.01
2019-03-04T00:37:33.450Z,54.97
2019-03-04T00:40:00.312Z,54.51
2019-03-04T00:42:27.041Z,54.93
2019-03-04T00:44:53.802Z,54.58
2019-03-04T00:47:20.553Z,54.82
2019-03-04T00:49:47.463Z,54.69
2019-03-04T00:52:16.167Z,54.83
2019-03-04T00:54:42.863Z,55.23
2019-03-04T00:57:09.583Z,54.92
2019-03-04T00:59:36.266Z,54.93
2019-03-04T01:02:02.967Z,55.02
2019-03-04T01:04:29.656Z,55.09
2019-03-04T01:06:56.358Z,55.23
2019-03-04T01:09:23.061Z,55.29
2019-03-04T01:11:50.141Z,55.25
2019-03-04T01:14:19.589Z,55.52
2019-03-04T01:16:46.835Z,55.80
2019-03-04T01:19:16.435Z,55.65
2019-03-04T01:21:43.134Z,56.17
2019-03-04T01:24:09.939Z,56.92
2019-03-04T01:26:36.664Z,57.96
2019-03-04T01:29:04.783Z,57.98
2019-03-04T01:31:31.508Z,58.80
2019-03-04T01:33:59.056Z,58.73
2019-03-04T01:36:25.788Z,59.70
2019-03-04T01:38:52.489Z,60.16
2019-03-04T01:41:19.634Z,60.63
2019-03-04T01:43:46.365Z,61.28
2019-03-04T01:46:13.075Z,61.36
2019-03-04T01:48:39.745Z,61.78
2019-03-04T01:51:06.478Z,62.42
2019-03-04T01:53:33.183Z,63.21
2019-03-04T01:56:00.432Z,63.75
2019-03-04T01:58:27.133Z,64.67
2019-03-04T02:00:54.155Z,65.34
2019-03-04T02:03:22.561Z,66.48
2019-03-04T02:05:49.260Z,67.29
2019-03-04T02:08:15.987Z,67.63
2019-03-04T02:10:42.704Z,67.91
2019-03-04T02:13:09.413Z,68.53
2019-03-04T02:15:36.131Z,69.35
2019-03-04T02:18:02.857Z,69.37
2019-03-04T02:20:29.583Z,69.50
2019-03-04T02:22:56.315Z,70.79
2019-03-04T02:25:55.830Z,71.49
2019-03-04T02:28:22.575Z,71.27
2019-03-04T02:30:49.679Z,71.10
2019-03-04T02:33:18.824Z,71.43
2019-03-04T02:35:45.525Z,72.54
2019-03-04T02:38:15.048Z,72.98
2019-03-04T02:40:41.765Z,73.34
2019-03-04T02:43:08.447Z,74.79
2019-03-04T02:45:35.142Z,74.46
2019-03-04T02:48:01.908Z,74.10
2019-03-04T02:50:28.623Z,74.03
2019-03-04T02:52:55.331Z,73.44
2019-03-04T02:55:22.007Z,73.83
2019-03-04T02:57:49.284Z,74.39
2019-03-04T03:00:15.996Z,74.08
2019-03-04T03:02:42.720Z,73.25
2019-03-04T03:05:09.437Z,72.99
2019-03-04T03:07:36.154Z,73.56
2019-03-04T03:10:03.754Z,73.15
2019-03-04T03:12:33.733Z,73.30
2019-03-04T03:15:00.582Z,72.87
2019-03-04T03:17:27.263Z,72.71
2019-03-04T03:19:53.961Z,73.27
2019-03-04T03:22:20.695Z,73.39
2019-03-04T03:24:47.356Z,73.18
2019-03-04T03:27:14.089Z,73.00
2019-03-04T03:29:43.366Z,72.88
2019-03-04T03:32:11.993Z,72.74
2019-03-04T03:34:38.679Z,71.59
2019-03-04T03:37:05.375Z,71.71
2019-03-04T03:39:32.078Z,71.86
2019-03-04T03:41:58.870Z,71.52
2019-03-04T03:44:25.595Z,70.67
2019-03-04T03:46:52.337Z,69.89
2019-03-04T03:49:19.026Z,69.47
2019-03-04T03:51:45.747Z,68.68
2019-03-04T03:54:12.460Z,67.97
2019-03-04T03:56:39.174Z,67.66
2019-03-04T03:59:05.881Z,66.87
2019-03-04T04:01:32.915Z,67.29
2019-03-04T04:04:00.008Z,67.31
2019-03-04T04:06:26.715Z,66.18
2019-03-04T04:08:53.428Z,66.67
2019-03-04T04:11:20.141Z,66.66
2019-03-04T04:13:47.101Z,66.73
2019-03-04T04:16:13.786Z,66.23
2019-03-04T04:18:40.524Z,66.43
2019-03-04T04:21:07.325Z,65.85
2019-03-04T04:23:37.093Z,65.91
2019-03-04T04:26:19.739Z,66.35
2019-03-04T04:28:47.187Z,65.06
2019-03-04T04:31:13.881Z,63.63
2019-03-04T04:33:42.111Z,63.46
2019-03-04T04:36:08.794Z,63.50
2019-03-04T04:38:35.505Z,63.35
2019-03-04T04:41:02.525Z,62.99
2019-03-04T04:43:29.343Z,62.63
2019-03-04T04:45:56.357Z,62.60
2019-03-04T04:48:23.058Z,62.56
2019-03-04T04:50:50.363Z,62.25
2019-03-04T04:53:17.071Z,61.40
2019-03-04T04:55:43.954Z,61.37
2019-03-04T04:58:10.676Z,61.19
2019-03-04T05:00:37.342Z,61.26
2019-03-04T05:03:04.065Z,60.66
2019-03-04T05:05:30.756Z,60.33
2019-03-04T05:07:57.590Z,60.91
2019-03-04T05:10:24.568Z,60.55
2019-03-04T05:12:51.426Z,60.31
2019-03-04T05:15:18.122Z,60.24
2019-03-04T05:17:44.860Z,59.89
2019-03-04T05:20:16.978Z,59.30
2019-03-04T05:22:43.711Z,59.15
2019-03-04T05:25:10.407Z,59.01
2019-03-04T05:27:37.152Z,58.22
2019-03-04T05:30:07.809Z,58.37
2019-03-04T05:32:37.769Z,58.51
2019-03-04T05:35:04.672Z,58.32
2019-03-04T05:37:31.703Z,58.24
2019-03-04T05:39:58.405Z,58.21
2019-03-04T05:42:25.117Z,57.88
2019-03-04T05:44:51.796Z,58.03
2019-03-04T05:47:18.538Z,57.85
2019-03-04T05:49:46.067Z,58.23
2019-03-04T05:52:12.791Z,57.96
2019-03-04T05:54:39.515Z,57.32
2019-03-04T05:57:06.296Z,57.68
2019-03-04T05:59:33.031Z,58.22
2019-03-04T06:02:08.008Z,58.79
2019-03-04T06:04:35.158Z,59.18
2019-03-04T06:07:05.603Z,59.99
2019-03-04T06:09:32.314Z,60.41
2019-03-04T06:11:58.994Z,60.78
2019-03-04T06:14:26.040Z,61.05
2019-03-04T06:16:52.790Z,61.69
2019-03-04T06:19:19.537Z,63.05
2019-03-04T06:21:46.308Z,63.98
2019-03-04T06:24:13.028Z,65.31
2019-03-04T06:26:40.598Z,65.98
2019-03-04T06:29:09.582Z,66.49
2019-03-04T06:31:36.303Z,67.30
2019-03-04T06:34:03.362Z,67.57
2019-03-04T06:36:30.077Z,67.36
2019-03-04T06:38:56.750Z,67.29
2019-03-04T06:41:23.446Z,67.83
2019-03-04T06:43:51.452Z,68.04
2019-03-04T06:46:18.477Z,67.60
2019-03-04T06:48:45.159Z,66.08
2019-03-04T06:51:18.099Z,66.37
2019-03-04T06:54:05.514Z,66.50
2019-03-04T06:56:54.609Z,64.87
2019-03-04T06:59:56.584Z,64.14
2019-03-04T07:02:24.080Z,64.12
2019-03-04T07:05:33.127Z,64.19
2019-03-04T07:08:00.358Z,63.26
2019-03-04T07:10:27.171Z,63.09
2019-03-04T07:12:54.437Z,62.79
2019-03-04T07:15:21.138Z,63.28
2019-03-04T07:17:47.962Z,61.85
2019-03-04T07:20:15.098Z,61.51
2019-03-04T07:22:41.768Z,60.98
2019-03-04T07:25:08.470Z,60.64
2019-03-04T07:27:37.082Z,60.04
2019-03-04T07:30:05.348Z,59.40
2019-03-04T07:32:32.056Z,59.13
2019-03-04T07:34:58.759Z,57.93
2019-03-04T07:37:25.518Z,56.99
2019-03-04T07:39:52.682Z,57.40
2019-03-04T07:42:19.382Z,57.15
2019-03-04T07:44:46.102Z,56.48
2019-03-04T07:47:13.333Z,57.13
2019-03-04T07:49:41.810Z,57.17
2019-03-04T07:52:11.072Z,56.96
2019-03-04T07:54:38.418Z,56.59
2019-03-04T07:57:08.536Z,57.19
2019-03-04T07:59:35.344Z,56.46
2019-03-04T08:02:02.013Z,55.71
2019-03-04T08:04:29.426Z,56.09
2019-03-04T08:07:33.072Z,55.39
2019-03-04T08:10:19.600Z,55.55
2019-03-04T08:13:29.082Z,54.83
2019-03-04T08:15:56.847Z,55.24
2019-03-04T08:18:23.544Z,55.44
2019-03-04T08:20:50.261Z,55.45
2019-03-04T08:23:18.602Z,55.30
2019-03-04T08:25:46.846Z,55.76
2019-03-04T08:28:14.362Z,55.49
2019-03-04T08:30:41.150Z,55.21
2019-03-04T08:33:08.220Z,54.95
2019-03-04T08:35:34.906Z,54.96
2019-03-04T08:38:01.700Z,55.01
2019-03-04T08:40:28.396Z,54.71
2019-03-04T08:42:55.123Z,54.70
2019-03-04T08:45:23.240Z,56.84
2019-03-04T08:47:50.026Z,58.70
2019-03-04T08:50:18.549Z,60.30
2019-03-04T08:52:45.510Z,61.03
2019-03-04T08:55:14.703Z,61.17
2019-03-04T08:57:41.438Z,60.85
2019-03-04T09:00:11.473Z,60.55
2019-03-04T09:02:38.798Z,60.91
2019-03-04T09:05:09.020Z,61.04
2019-03-04T09:07:35.720Z,60.05
2019-03-04T09:10:03.982Z,59.30
2019-03-04T09:12:30.697Z,59.50
2019-03-04T09:14:57.419Z,59.69
2019-03-04T09:17:24.222Z,58.72
2019-03-04T09:19:51.350Z,58.15
2019-03-04T09:22:18.238Z,56.66
2019-03-04T09:24:45.015Z,56.82
2019-03-04T09:27:11.785Z,56.79
2019-03-04T09:29:38.599Z,56.60
2019-03-04T09:32:05.310Z,56.55
2019-03-04T09:34:32.193Z,55.44
2019-03-04T09:36:58.880Z,55.00
2019-03-04T09:39:25.642Z,54.52
2019-03-04T09:41:56.300Z,54.22
2019-03-04T09:44:23.030Z,54.32
2019-03-04T09:46:49.760Z,54.27
2019-03-04T09:49:16.525Z,53.74
2019-03-04T09:51:43.230Z,54.32
2019-03-04T09:54:09.950Z,54.04
2019-03-04T09:56:37.171Z,53.95
2019-03-04T09:59:03.875Z,53.76
2019-03-04T10:01:41.637Z,53.01
2019-03-04T10:04:31.482Z,52.91
2019-03-04T10:08:01.511Z,51.51
2019-03-04T10:11:12.714Z,50.05
2019-03-04T10:14:36.629Z,49.91
2019-03-04T10:17:25.321Z,50.28
2019-03-04T10:20:42.619Z,49.50
2019-03-04T10:23:51.155Z,49.23
2019-03-04T10:26:57.201Z,49.88
2019-03-04T10:30:20.657Z,49.35
2019-03-04T10:33:25.665Z,48.33
2019-03-04T10:36:37.619Z,49.46
2019-03-04T10:40:04.413Z,51.46
2019-03-04T10:43:18.868Z,53.65
2019-03-04T10:46:02.092Z,55.41
2019-03-04T10:48:28.805Z,56.11
2019-03-04T10:50:55.547Z,57.81
2019-03-04T10:53:22.327Z,58.96
2019-03-04T10:55:49.145Z,59.43
2019-03-04T10:58:15.960Z,59.99
2019-03-04T11:00:42.698Z,57.75
2019-03-04T11:03:09.853Z,58.78
2019-03-04T11:05:36.573Z,59.40
2019-03-04T11:08:03.280Z,60.21
2019-03-04T11:10:30.094Z,61.15
2019-03-04T11:12:56.861Z,62.06
2019-03-04T11:15:23.586Z,63.01
2019-03-04T11:17:50.409Z,61.91
2019-03-04T11:20:17.443Z,64.51
2019-03-04T11:22:47.199Z,65.30
2019-03-04T11:25:13.893Z,63.82
2019-03-04T11:27:40.729Z,62.76
2019-03-04T11:30:08.453Z,63.62
2019-03-04T11:32:35.204Z,62.67
2019-03-04T11:35:02.085Z,65.24
2019-03-04T11:37:33.435Z,66.92
2019-03-04T11:40:04.519Z,67.00
2019-03-04T11:42:31.649Z,67.98
2019-03-04T11:44:58.428Z,68.85
2019-03-04T11:47:26.094Z,69.85
2019-03-04T11:49:53.503Z,71.33
2019-03-04T11:52:20.537Z,71.47
2019-03-04T11:54:47.270Z,72.50
2019-03-04T11:57:13.999Z,73.83
2019-03-04T11:59:40.759Z,73.99
2019-03-04T12:02:14.168Z,75.74
2019-03-04T12:04:41.037Z,74.64
2019-03-04T12:07:08.140Z,73.86
2019-03-04T12:09:34.872Z,73.20
2019-03-04T12:12:01.631Z,72.62
2019-03-04T12:14:28.363Z,72.31
2019-03-04T12:16:55.521Z,70.39
2019-03-04T12:19:22.657Z,67.60
2019-03-04T12:21:49.454Z,68.76
2019-03-04T12:24:16.677Z,71.20
2019-03-04T12:26:43.413Z,71.83
2019-03-04T12:29:10.305Z,74.76
2019-03-04T12:31:44.478Z,76.14
2019-03-04T12:34:13.060Z,78.67
2019-03-04T12:36:39.825Z,79.61
2019-03-04T12:39:06.531Z,79.84
2019-03-04T12:41:33.244Z,81.06
2019-03-04T12:44:00.307Z,80.44
2019-03-04T12:46:27.027Z,80.24
2019-03-04T12:48:53.775Z,78.89
2019-03-04T12:51:23.444Z,78.53
2019-03-04T12:53:49.220Z,79.19
2019-03-04T12:56:15.936Z,78.28
2019-03-04T12:58:43.020Z,79.22
2019-03-04T13:01:09.747Z,77.24
2019-03-04T13:03:36.467Z,76.37
2019-03-04T13:06:04.836Z,77.04
2019-03-04T13:08:31.607Z,75.68
2019-03-04T13:10:58.325Z,74.91
2019-03-04T13:13:24.991Z,76.80
2019-03-04T13:15:53.274Z,77.10
2019-03-04T13:18:19.959Z,76.43
2019-03-04T13:20:46.679Z,77.00
2019-03-04T13:23:13.402Z,75.44
2019-03-04T13:25:40.145Z,77.31
2019-03-04T13:28:08.441Z,78.36
2019-03-04T13:30:35.621Z,80.18
2019-03-04T13:33:02.441Z,80.82
2019-03-04T13:35:29.275Z,80.92
2019-03-04T13:37:56.066Z,79.86
2019-03-04T13:40:22.936Z,79.14
2019-03-04T13:42:49.751Z,79.74
2019-03-04T13:45:16.477Z,81.12
2019-03-04T13:47:43.229Z,78.52
2019-03-04T13:50:15.164Z,76.93
2019-03-04T13:52:41.874Z,73.30
2019-03-04T13:55:11.255Z,75.28
2019-03-04T13:57:37.984Z,72.87
2019-03-04T14:00:10.213Z,71.63
2019-03-04T14:02:36.934Z,73.56
2019-03-04T14:05:03.986Z,75.65
2019-03-04T14:07:31.151Z,77.11
2019-03-04T14:09:57.893Z,76.45
2019-03-04T14:12:24.748Z,77.44
2019-03-04T14:14:51.451Z,77.12
2019-03-04T14:17:18.173Z,76.55
2019-03-04T14:19:45.932Z,78.12
2019-03-04T14:22:14.671Z,78.43
2019-03-04T14:24:41.599Z,79.51
2019-03-04T14:27:08.351Z,80.33
2019-03-04T14:29:35.091Z,83.19
2019-03-04T14:32:01.838Z,83.74
2019-03-04T14:34:28.567Z,84.89
2019-03-04T14:36:55.364Z,85.91
2019-03-04T14:39:22.114Z,85.46
2019-03-04T14:41:49.087Z,86.47
2019-03-04T14:44:15.802Z,85.80
2019-03-04T14:46:42.568Z,86.24
2019-03-04T14:49:09.271Z,85.90
2019-03-04T14:51:36.123Z,84.94
2019-03-04T14:54:02.832Z,85.10
2019-03-04T14:56:29.888Z,84.67
2019-03-04T14:59:10.303Z,85.40
2019-03-04T15:01:25.319Z,86.76
2019-03-04T15:03:52.094Z,87.16
2019-03-04T15:06:20.157Z,87.50
2019-03-04T15:08:47.037Z,86.44
2019-03-04T15:11:14.100Z,85.01
2019-03-04T15:13:43.629Z,84.36
2019-03-04T15:16:10.349Z,86.28
2019-03-04T15:18:39.209Z,84.83
2019-03-04T15:21:05.938Z,85.90
2019-03-04T15:23:33.076Z,84.43
2019-03-04T15:25:59.806Z,85.22
2019-03-04T15:28:26.795Z,86.40
2019-03-04T15:30:55.294Z,86.30
2019-03-04T15:33:22.081Z,86.26
2019-03-04T15:35:48.826Z,85.39
2019-03-04T15:38:15.661Z,85.93
2019-03-04T15:40:43.054Z,85.93
2019-03-04T15:43:10.062Z,85.65
2019-03-04T15:45:36.957Z,86.96
2019-03-04T15:48:03.791Z,85.19
2019-03-04T15:50:30.780Z,86.48
2019-03-04T15:52:57.816Z,86.03
2019-03-04T15:55:24.731Z,87.32
2019-03-04T15:57:51.441Z,86.80
2019-03-04T16:00:18.200Z,84.58
2019-03-04T16:02:45.001Z,84.93
2019-03-04T16:05:11.861Z,84.93
2019-03-04T16:07:38.584Z,85.87
2019-03-04T16:10:08.016Z,86.74
2019-03-04T16:12:37.189Z,86.11
2019-03-04T16:15:06.213Z,85.48
2019-03-04T16:17:32.922Z,85.87
2019-03-04T16:19:59.805Z,86.38
2019-03-04T16:22:26.522Z,85.35
2019-03-04T16:24:53.256Z,84.66
2019-03-04T16:27:20.005Z,84.66
2019-03-04T16:29:47.174Z,82.38
2019-03-04T16:32:14.259Z,82.21
2019-03-04T16:34:40.966Z,82.26
2019-03-04T16:37:11.130Z,84.05
2019-03-04T16:39:38.033Z,83.06
2019-03-04T16:42:06.587Z,82.80
2019-03-04T16:44:33.344Z,83.73
2019-03-04T16:47:00.525Z,82.92
2019-03-04T16:49:27.747Z,82.91
2019-03-04T16:51:54.410Z,85.00
2019-03-04T16:54:21.308Z,85.68
2019-03-04T16:56:48.036Z,84.27
2019-03-04T16:59:15.129Z,85.35
2019-03-04T17:01:41.847Z,85.17
2019-03-04T17:04:08.681Z,85.79
2019-03-04T17:06:35.757Z,85.52
2019-03-04T17:09:06.964Z,84.65
2019-03-04T17:11:33.680Z,82.73
2019-03-04T17:14:00.384Z,83.76
2019-03-04T17:16:27.103Z,82.62
2019-03-04T17:18:56.891Z,82.10
2019-03-04T17:21:24.097Z,82.41
2019-03-04T17:23:50.820Z,83.23
2019-03-04T17:26:17.924Z,82.09
2019-03-04T17:28:45.173Z,83.55
2019-03-04T17:31:11.893Z,84.81
2019-03-04T17:33:38.633Z,83.24
2019-03-04T17:36:05.336Z,83.24
2019-03-04T17:38:34.368Z,83.37
2019-03-04T17:41:01.192Z,82.38
2019-03-04T17:43:27.888Z,83.25
2019-03-04T17:45:54.887Z,84.64
2019-03-04T17:48:24.289Z,84.60
2019-03-04T17:50:51.164Z,84.02
2019-03-04T17:53:18.259Z,83.03
2019-03-04T17:55:44.973Z,83.86
2019-03-04T17:58:11.698Z,85.51
2019-03-04T18:00:40.278Z,83.31
2019-03-04T18:03:07.010Z,84.05
2019-03-04T18:05:33.781Z,85.43
2019-03-04T18:08:00.491Z,84.59
2019-03-04T18:10:27.936Z,83.94
2019-03-04T18:12:54.718Z,84.15
2019-03-04T18:15:21.478Z,83.68
2019-03-04T18:17:48.554Z,85.62
2019-03-04T18:20:15.362Z,84.19
2019-03-04T18:22:42.090Z,84.09
2019-03-04T18:25:15.253Z,84.94
2019-03-04T18:27:54.194Z,85.52
2019-03-04T18:30:29.266Z,85.52
2019-03-04T18:33:22.455Z,85.31
2019-03-04T18:36:22.401Z,86.81
2019-03-04T18:39:41.678Z,85.85
2019-03-04T18:42:37.431Z,84.70
2019-03-04T18:45:51.208Z,85.97
2019-03-04T18:48:52.886Z,87.31
2019-03-04T18:51:19.936Z,87.14
2019-03-04T18:53:46.673Z,86.73
2019-03-04T18:56:21.769Z,86.08
2019-03-04T18:58:42.706Z,86.08
2019-03-04T19:01:09.662Z,86.08
2019-03-04T19:03:36.423Z,87.20
2019-03-04T19:06:05.415Z,87.34
2019-03-04T19:08:34.055Z,84.88
2019-03-04T19:11:03.544Z,84.88
2019-03-04T19:13:30.273Z,84.60
2019-03-04T19:15:57.479Z,86.84
2019-03-04T19:18:24.224Z,86.95
2019-03-04T19:20:50.964Z,86.22
2019-03-04T19:23:17.689Z,86.46
2019-03-04T19:25:44.524Z,86.21
2019-03-04T19:28:11.366Z,85.33
2019-03-04T19:30:38.537Z,85.76
2019-03-04T19:33:05.313Z,87.11
2019-03-04T19:35:32.164Z,87.93
2019-03-04T19:38:00.888Z,86.58
2019-03-04T19:40:27.766Z,87.10
2019-03-04T19:42:54.613Z,88.10
2019-03-04T19:45:21.553Z,89.21
2019-03-04T19:47:48.269Z,87.80
2019-03-04T19:50:15.326Z,87.53
2019-03-04T19:52:42.038Z,87.36
2019-03-04T19:55:08.860Z,87.35
2019-03-04T19:57:35.951Z,87.35
2019-03-04T20:00:03.955Z,86.41
2019-03-04T20:02:30.680Z,85.36
2019-03-04T20:04:57.440Z,85.73
2019-03-04T20:07:24.200Z,85.20
2019-03-04T20:09:51.253Z,85.84
2019-03-04T20:12:17.991Z,86.77
2019-03-04T20:14:44.750Z,85.88
2019-03-04T20:17:11.485Z,85.30
2019-03-04T20:19:38.200Z,85.49
2019-03-04T20:22:05.611Z,85.30
2019-03-04T20:24:32.339Z,84.82
2019-03-04T20:26:59.092Z,84.82
2019-03-04T20:29:25.843Z,83.83
2019-03-04T20:31:52.709Z,85.45
2019-03-04T20:34:19.833Z,85.45
2019-03-04T20:36:49.644Z,84.78
2019-03-04T20:39:16.490Z,84.78
2019-03-04T20:41:43.223Z,84.81
2019-03-04T20:44:10.576Z,86.46
2019-03-04T20:46:37.317Z,83.97
2019-03-04T20:49:04.058Z,84.51
2019-03-04T20:51:30.808Z,83.88
2019-03-04T20:53:57.671Z,84.41
2019-03-04T20:56:24.635Z,84.12
2019-03-04T20:58:51.748Z,85.73
2019-03-04T21:01:18.802Z,85.28
2019-03-04T21:03:45.637Z,84.80
2019-03-04T21:06:12.510Z,85.00
2019-03-04T21:08:39.620Z,86.12
2019-03-04T21:11:06.464Z,86.16
2019-03-04T21:13:35.759Z,85.54
2019-03-04T21:16:01.929Z,84.28
2019-03-04T21:18:29.019Z,84.95
2019-03-04T21:20:55.767Z,85.84
2019-03-04T21:23:22.515Z,85.73
2019-03-04T21:25:55.545Z,84.56
2019-03-04T21:28:33.003Z,85.71
2019-03-04T21:31:40.423Z,84.31
2019-03-04T21:34:45.315Z,83.97
2019-03-04T21:37:19.753Z,84.46
2019-03-04T21:39:48.468Z,85.43
2019-03-04T21:42:26.650Z,84.32
2019-03-04T21:45:47.249Z,84.09
2019-03-04T21:48:24.024Z,84.78
2019-03-04T21:50:56.021Z,85.60
2019-03-04T21:53:30.456Z,84.87
2019-03-04T21:56:17.226Z,84.66
2019-03-04T21:58:43.939Z,84.94
2019-03-04T22:01:20.036Z,85.33
2019-03-04T22:03:46.782Z,85.85
2019-03-04T22:06:13.476Z,87.40
2019-03-04T22:08:42.326Z,87.73
2019-03-04T22:11:09.027Z,88.72
2019-03-04T22:13:35.755Z,88.40
2019-03-04T22:16:02.491Z,89.26
2019-03-04T22:18:29.244Z,89.07
2019-03-04T22:20:56.273Z,87.74
2019-03-04T22:23:23.031Z,87.43
2019-03-04T22:25:49.776Z,87.31
2019-03-04T22:28:16.477Z,86.62
2019-03-04T22:30:43.186Z,86.90
2019-03-04T22:33:13.151Z,86.33
2019-03-04T22:35:39.901Z,84.98
2019-03-04T22:38:06.638Z,84.28
2019-03-04T22:40:33.689Z,84.21
2019-03-04T22:43:01.619Z,84.05
2019-03-04T22:45:28.370Z,84.44
2019-03-04T22:47:57.934Z,84.22
2019-03-04T22:50:24.747Z,83.27
2019-03-04T22:52:51.519Z,82.96
2019-03-04T22:55:24.908Z,81.81
2019-03-04T22:57:51.672Z,84.22
2019-03-04T23:01:24.962Z,82.46
2019-03-04T23:03:53.541Z,83.78
2019-03-04T23:06:30.834Z,83.03
2019-03-04T23:09:01.013Z,81.47
2019-03-04T23:11:28.471Z,81.21
2019-03-04T23:14:17.243Z,80.69
2019-03-04T23:16:43.941Z,80.69
2019-03-04T23:19:10.664Z,79.85
2019-03-04T23:21:37.401Z,79.14
2019-03-04T23:24:04.203Z,79.14
2019-03-04T23:26:31.218Z,79.30
2019-03-04T23:28:57.964Z,79.52
2019-03-04T23:31:24.690Z,79.52
2019-03-04T23:33:51.377Z,78.38
2019-03-04T23:36:18.121Z,78.06
2019-03-04T23:38:44.841Z,78.36
2019-03-04T23:41:14.180Z,78.36
2019-03-04T23:43:41.173Z,78.44
2019-03-04T23:46:07.907Z,78.44
2019-03-04T23:48:34.767Z,78.96
2019-03-04T23:51:01.533Z,78.77
2019-03-04T23:53:30.935Z,78.77
2019-03-04T23:55:56.865Z,78.45
2019-03-04T23:58:23.872Z,78.48
